Beloeil, Canada
Current Conditions -  °F | °C
As of 2:00 AM on Sunday 26 Oct 2014 (Local Time) from CYHU Reporting Station
Overcast Overcast  
Wind Chill: 43°   Ceiling: 22000
Heat Index: 46°   Visibility: 9mi
Dew Point: 43°   Wind: 7mph
Humidity: 87%   Direction: 250°WSW
Pressure: 29.4"   Gusts: NA
Location:  45.57°N, 73.2°W
Report Text: CYHU 260600Z AUTO 25006KT 9SM SCT070 OVC220 08/06 A2940 RMK SLP955
Loading
Personal Weather Stations






























Interactive Weather Map
Tropical Storm Tracking
New forecast layout! Learn more

10-Day Weather Forecast

Advertisements
Track Severe Weather on mobile